Aérodrome :
LOGIN :

S'inscrire | Disclaimer

   EN    FR    IT 

 










Légende :    VFR   VFR Marginal   IFR   IFR Intensif   IFR Très Intensif
Visi : 
Plafond : 
>= 8 km
>= 3000ft
5 à 8 km
1000 à 3000 ft
1500m à 5 km
500 à 1000 ft
800 à 1500m
200 à 500 ft
< 800m
< 200 ft
Symboles :   Orages  Brouillard  Fortes neiges  Fortes précipitations  Vent > 20 kt
SIGMETs :   Divers  Orages  Givrage  Turbulence  Onde Orograph.  Cendres Volcan.






- Altitude de l'aérodrome : 257 ft
- Code IATA : MAN


EGCC - Manchester

DERNIER METAR :
  • 180420Z AUTO 29005KT 9999 FEW023 OVC027 12/08 Q1014

METARs EXPIRÉS :
  • 180350Z AUTO 30005KT 9999 OVC023 12/08 Q1014
  • 180320Z AUTO 30004KT 9999 OVC023 12/09 Q1014
  • 180250Z AUTO 29004KT 9999 BKN025 OVC030 13/09 Q1014 NOSIG
  • 180220Z AUTO 30005KT 9999 OVC023 13/09 Q1015
  • 180150Z AUTO 31004KT 270V340 9999 BKN021 OVC030 13/09 Q1015
  • 180120Z AUTO 33004KT 9999 BKN020 OVC028 13/09 Q1015
  • 180050Z AUTO 34004KT 9999 BKN019 OVC023 13/10 Q1015 NOSIG
  • 180020Z AUTO 31003KT 9999 BKN020 OVC027 13/10 Q1015 NOSIG
  • 172350Z AUTO 29005KT 9999 OVC017 13/10 Q1015

TAF TAF EGCC
Valide du 18 à 00h jusqu'au 19 à 06h UTC


172255Z 1800/1906 29008KT 9999 SCT025
PROB40
TEMPO 1802/1809 7000 BKN008
PROB30
TEMPO 1816/1819 4000 +SHRA
ATIS : +44 161 499 2324



MET'MAP, la Météo Aéronautique d'un coup d'oeil ! - Copyright ORBIFLY Décembre 2007 - Disclaimer

ORBIFLY MET'MAP TEAM :

Programmation & Développement : Alexandra Zaïnal
Sur une idée originale de : Baudouin d'Aumeries
Soutien technique & logistique : Manuel Goepfert
Assistance : Marc-Olivier Méhu




SOURCES & CREDITS :

   NOAA